Ofertas de vuelos a Natal

Encontranos en
En el mes de
SalidaRegresoDíasConexionesDisp.
Lun 04/05/20202020-05-04Lun 11/05/20202020-05-117ConexionesVer disponibilidad>05https://an.despegar.com/ad/1040?q=shop%2Fflights%2Fresults%2Froundtrip%2FBUE%2FNAT%2F2020-05-04%2F2020-05-11%2F1%2F0%2F0
Sab 13/06/20202020-06-13Vie 19/06/20202020-06-196ConexionesVer disponibilidad>06https://an.despegar.com/ad/1040?q=shop%2Fflights%2Fresults%2Froundtrip%2FBUE%2FNAT%2F2020-06-13%2F2020-06-19%2F1%2F0%2F0
Mie 17/06/20202020-06-17Mie 24/06/20202020-06-247ConexionesVer disponibilidad>06https://an.despegar.com/ad/1040?q=shop%2Fflights%2Fresults%2Froundtrip%2FBUE%2FNAT%2F2020-06-17%2F2020-06-24%2F1%2F0%2F0
Sab 27/06/20202020-06-27Sab 04/07/20202020-07-047ConexionesVer disponibilidad>06https://an.despegar.com/ad/1040?q=shop%2Fflights%2Fresults%2Froundtrip%2FBUE%2FNAT%2F2020-06-27%2F2020-07-04%2F1%2F0%2F0
Jue 02/07/20202020-07-02Jue 09/07/20202020-07-097ConexionesVer disponibilidad>07https://an.despegar.com/ad/1040?q=shop%2Fflights%2Fresults%2Froundtrip%2FBUE%2FNAT%2F2020-07-02%2F2020-07-09%2F1%2F0%2F0
Dom 12/07/20202020-07-12Dom 19/07/20202020-07-197ConexionesVer disponibilidad>07https://an.despegar.com/ad/1040?q=shop%2Fflights%2Fresults%2Froundtrip%2FBUE%2FNAT%2F2020-07-12%2F2020-07-19%2F1%2F0%2F0
Vie 17/07/20202020-07-17Vie 24/07/20202020-07-247ConexionesVer disponibilidad>07https://an.despegar.com/ad/1040?q=shop%2Fflights%2Fresults%2Froundtrip%2FBUE%2FNAT%2F2020-07-17%2F2020-07-24%2F1%2F0%2F0
Lun 20/07/20202020-07-20Vie 31/07/20202020-07-3111ConexionesVer disponibilidad>07https://an.despegar.com/ad/1040?q=shop%2Fflights%2Fresults%2Froundtrip%2FBUE%2FNAT%2F2020-07-20%2F2020-07-31%2F1%2F0%2F0
Dom 09/08/20202020-08-09Lun 17/08/20202020-08-178ConexionesVer disponibilidad>08https://an.despegar.com/ad/1040?q=shop%2Fflights%2Fresults%2Froundtrip%2FBUE%2FNAT%2F2020-08-09%2F2020-08-17%2F1%2F0%2F0
Vie 14/08/20202020-08-14Dom 06/09/20202020-09-0623ConexionesVer disponibilidad>08https://an.despegar.com/ad/1040?q=shop%2Fflights%2Fresults%2Froundtrip%2FBUE%2FNAT%2F2020-08-14%2F2020-09-06%2F1%2F0%2F0
Vie 21/08/20202020-08-21Vie 28/08/20202020-08-287ConexionesVer disponibilidad>08https://an.despegar.com/ad/1040?q=shop%2Fflights%2Fresults%2Froundtrip%2FBUE%2FNAT%2F2020-08-21%2F2020-08-28%2F1%2F0%2F0
Sab 22/08/20202020-08-22Sab 29/08/20202020-08-297ConexionesVer disponibilidad>08https://an.despegar.com/ad/1040?q=shop%2Fflights%2Fresults%2Froundtrip%2FBUE%2FNAT%2F2020-08-22%2F2020-08-29%2F1%2F0%2F0
Sab 29/08/20202020-08-29Dom 06/09/20202020-09-068ConexionesVer disponibilidad>08https://an.despegar.com/ad/1040?q=shop%2Fflights%2Fresults%2Froundtrip%2FBUE%2FNAT%2F2020-08-29%2F2020-09-06%2F1%2F0%2F0
Vie 04/09/20202020-09-04Mie 16/09/20202020-09-1612ConexionesVer disponibilidad>09https://an.despegar.com/ad/1040?q=shop%2Fflights%2Fresults%2Froundtrip%2FBUE%2FNAT%2F2020-09-04%2F2020-09-16%2F1%2F0%2F0
Sab 05/09/20202020-09-05Sab 26/09/20202020-09-2621ConexionesVer disponibilidad>09https://an.despegar.com/ad/1040?q=shop%2Fflights%2Fresults%2Froundtrip%2FBUE%2FNAT%2F2020-09-05%2F2020-09-26%2F1%2F0%2F0
Dom 06/09/20202020-09-06Dom 13/09/20202020-09-137ConexionesVer disponibilidad>09https://an.despegar.com/ad/1040?q=shop%2Fflights%2Fresults%2Froundtrip%2FBUE%2FNAT%2F2020-09-06%2F2020-09-13%2F1%2F0%2F0
Dom 20/09/20202020-09-20Sab 26/09/20202020-09-266ConexionesVer disponibilidad>09https://an.despegar.com/ad/1040?q=shop%2Fflights%2Fresults%2Froundtrip%2FBUE%2FNAT%2F2020-09-20%2F2020-09-26%2F1%2F0%2F0
Dom 27/09/20202020-09-27Jue 08/10/20202020-10-0811ConexionesVer disponibilidad>09https://an.despegar.com/ad/1040?q=shop%2Fflights%2Fresults%2Froundtrip%2FBUE%2FNAT%2F2020-09-27%2F2020-10-08%2F1%2F0%2F0
Mie 14/10/20202020-10-14Mie 28/10/20202020-10-2814ConexionesVer disponibilidad>10https://an.despegar.com/ad/1040?q=shop%2Fflights%2Fresults%2Froundtrip%2FBUE%2FNAT%2F2020-10-14%2F2020-10-28%2F1%2F0%2F0
Dom 01/11/20202020-11-01Mar 10/11/20202020-11-109ConexionesVer disponibilidad>11https://an.despegar.com/ad/1040?q=shop%2Fflights%2Fresults%2Froundtrip%2FBUE%2FNAT%2F2020-11-01%2F2020-11-10%2F1%2F0%2F0
Mie 11/11/20202020-11-11Dom 22/11/20202020-11-2211ConexionesVer disponibilidad>11https://an.despegar.com/ad/1040?q=shop%2Fflights%2Fresults%2Froundtrip%2FBUE%2FNAT%2F2020-11-11%2F2020-11-22%2F1%2F0%2F0
Mie 11/11/20202020-11-11Sab 21/11/20202020-11-2110ConexionesVer disponibilidad>11https://an.despegar.com/ad/1040?q=shop%2Fflights%2Fresults%2Froundtrip%2FBUE%2FNAT%2F2020-11-11%2F2020-11-21%2F1%2F0%2F0
Vie 13/11/20202020-11-13Lun 23/11/20202020-11-2310ConexionesVer disponibilidad>11https://an.despegar.com/ad/1040?q=shop%2Fflights%2Fresults%2Froundtrip%2FBUE%2FNAT%2F2020-11-13%2F2020-11-23%2F1%2F0%2F0
Sab 23/01/20212021-01-23Dom 07/02/20212021-02-0715ConexionesVer disponibilidad>01https://an.despegar.com/ad/1040?q=shop%2Fflights%2Fresults%2Froundtrip%2FBUE%2FNAT%2F2021-01-23%2F2021-02-07%2F1%2F0%2F0

Es posible que la disponibilidad de vuelos hacia este destino se vea afectada debido al COVID-19. Si es tu caso, te invitamos a realizar una nueva búsqueda a través de este link.

Información general sobre Natal

Natal, que en español significa Navidad, es una ciudad brasileña localizada en el estado de Rio Grande do Norte. Atravesada por el río Potengi, la capital nordestina cuenta con playas, dunas y diferentes atracciones históricas. Anualmente recibe a dos millones de turistas y es la puerta de entrada hacia otros importantes destinos del estado.

Pasajes Aéreos y Vuelos Baratos a Natal

Descargá gratis nuestra nueva app para Android y iOS.
Suscribite a las notificaciones de Chrome y Safari.
Seguinos en Facebook, Twitter e Instagram
Suscribite a nuestro newsletter aquí.